createdAt,value
2017-09-18T00:02:13.657Z,100578.77
2017-09-18T00:04:41.459Z,100581.67
2017-09-18T00:07:08.618Z,100575.29
2017-09-18T00:09:36.262Z,100580.70
2017-09-18T00:12:03.406Z,100579.36
2017-09-18T00:14:30.517Z,100579.97
2017-09-18T00:16:58.262Z,100564.22
2017-09-18T00:19:25.323Z,100569.38
2017-09-18T00:21:56.060Z,100575.51
2017-09-18T00:24:23.078Z,100579.02
2017-09-18T00:26:50.790Z,100569.67
2017-09-18T00:29:17.618Z,100569.80
2017-09-18T00:31:45.652Z,100583.91
2017-09-18T00:34:13.370Z,100585.56
2017-09-18T00:36:40.327Z,100568.53
2017-09-18T00:39:07.174Z,100572.09
2017-09-18T00:41:34.189Z,100584.53
2017-09-18T00:44:01.529Z,100578.48
2017-09-18T00:46:29.391Z,100585.46
2017-09-18T00:49:01.073Z,100575.50
2017-09-18T00:51:28.199Z,100579.22
2017-09-18T00:53:56.487Z,100580.66
2017-09-18T00:56:28.976Z,100582.69
2017-09-18T00:58:58.647Z,100585.63
2017-09-18T01:01:25.967Z,100583.93
2017-09-18T01:04:01.025Z,100588.67
2017-09-18T01:06:31.852Z,100593.84
2017-09-18T01:08:58.770Z,100599.12
2017-09-18T01:11:25.670Z,100604.23
2017-09-18T01:13:52.774Z,100601.80
2017-09-18T01:16:26.594Z,100606.43
2017-09-18T01:18:53.853Z,100600.38
2017-09-18T01:21:21.502Z,100599.48
2017-09-18T01:23:52.704Z,100600.69
2017-09-18T01:26:20.518Z,100595.56
2017-09-18T01:28:47.606Z,100603.33
2017-09-18T01:31:14.509Z,100596.63
2017-09-18T01:33:42.150Z,100595.29
2017-09-18T01:36:16.009Z,100590.72
2017-09-18T01:38:48.690Z,100590.50
2017-09-18T01:41:16.601Z,100596.47
2017-09-18T01:43:44.045Z,100594.03
2017-09-18T01:46:18.011Z,100594.94
2017-09-18T01:48:48.075Z,100594.04
2017-09-18T01:51:15.101Z,100591.03
2017-09-18T01:53:42.051Z,100598.41
2017-09-18T01:56:14.107Z,100594.19
2017-09-18T01:58:41.210Z,100590.72
2017-09-18T02:01:08.869Z,100594.69
2017-09-18T02:03:36.769Z,100585.91
2017-09-18T02:06:09.701Z,100581.94
2017-09-18T02:08:37.446Z,100584.22
2017-09-18T02:11:07.599Z,100585.19
2017-09-18T02:13:35.696Z,100595.31
2017-09-18T02:16:03.001Z,100595.02
2017-09-18T02:18:29.819Z,100592.48
2017-09-18T02:21:02.798Z,100593.52
2017-09-18T02:23:29.869Z,100596.97
2017-09-18T02:25:57.506Z,100587.50
2017-09-18T02:28:25.470Z,100588.88
2017-09-18T02:30:55.617Z,100591.06
2017-09-18T02:33:22.520Z,100587.90
2017-09-18T02:35:54.655Z,100592.49
2017-09-18T02:38:21.563Z,100592.14
2017-09-18T02:40:54.250Z,100593.50
2017-09-18T02:43:22.076Z,100596.14
2017-09-18T02:45:54.536Z,100591.41
2017-09-18T02:48:26.783Z,100596.89
2017-09-18T02:50:58.929Z,100596.52
2017-09-18T02:53:25.878Z,100597.78
2017-09-18T02:55:53.514Z,100593.31
2017-09-18T02:58:20.396Z,100593.47
2017-09-18T03:00:53.430Z,100597.31
2017-09-18T03:03:26.286Z,100597.06
2017-09-18T03:05:54.143Z,100597.43
2017-09-18T03:08:22.267Z,100598.64
2017-09-18T03:10:49.373Z,100597.41
2017-09-18T03:13:21.457Z,100588.98
2017-09-18T03:15:49.368Z,100584.11
2017-09-18T03:18:16.282Z,100586.91
2017-09-18T03:20:48.407Z,100586.00
2017-09-18T03:23:15.661Z,100584.03
2017-09-18T03:25:43.419Z,100579.23
2017-09-18T03:28:11.321Z,100589.75
2017-09-18T03:30:45.323Z,100578.27
2017-09-18T03:33:13.020Z,100578.97
2017-09-18T03:35:40.622Z,100587.60
2017-09-18T03:38:07.542Z,100585.59
2017-09-18T03:40:35.630Z,100591.36
2017-09-18T03:43:07.682Z,100584.70
2017-09-18T03:45:34.977Z,100585.00
2017-09-18T03:48:07.422Z,100593.97
2017-09-18T03:50:39.757Z,100594.26
2017-09-18T03:53:07.499Z,100590.17
2017-09-18T03:55:35.219Z,100593.41
2017-09-18T03:58:07.318Z,100586.34
2017-09-18T04:00:40.045Z,100585.02
2017-09-18T04:03:06.958Z,100588.63
2017-09-18T04:05:39.539Z,100587.12
2017-09-18T04:08:07.903Z,100593.63
2017-09-18T04:10:35.885Z,100590.19
2017-09-18T04:13:08.063Z,100594.38
2017-09-18T04:15:36.315Z,100594.75
2017-09-18T04:18:03.493Z,100599.42
2017-09-18T04:20:35.458Z,100601.44
2017-09-18T04:23:05.501Z,100597.42
2017-09-18T04:25:33.443Z,100600.23
2017-09-18T04:28:00.425Z,100598.78
2017-09-18T04:30:32.751Z,100596.73
2017-09-18T04:33:03.409Z,100598.27
2017-09-18T04:35:35.698Z,100593.98
2017-09-18T04:38:03.063Z,100595.44
2017-09-18T04:40:30.955Z,100599.11
2017-09-18T04:42:58.705Z,100598.26
2017-09-18T04:45:30.840Z,100595.87
2017-09-18T04:47:58.011Z,100603.98
2017-09-18T04:50:25.002Z,100599.70
2017-09-18T04:52:58.157Z,100596.07
2017-09-18T04:55:30.341Z,100592.66
2017-09-18T04:57:57.343Z,100595.81
2017-09-18T05:00:24.239Z,100599.30
2017-09-18T05:02:54.550Z,100597.52
2017-09-18T05:05:22.267Z,100601.70
2017-09-18T05:07:50.651Z,100606.63
2017-09-18T05:10:18.569Z,100604.63
2017-09-18T05:12:45.483Z,100606.26
2017-09-18T05:15:17.897Z,100608.45
2017-09-18T05:17:45.802Z,100612.66
2017-09-18T05:20:12.810Z,100614.77
2017-09-18T05:22:40.090Z,100615.54
2017-09-18T05:25:06.980Z,100618.09
2017-09-18T05:27:35.398Z,100611.53
2017-09-18T05:30:07.389Z,100610.88
2017-09-18T05:32:35.063Z,100617.52
2017-09-18T05:35:01.999Z,100619.66
2017-09-18T05:37:32.067Z,100615.12
2017-09-18T05:39:59.351Z,100617.75
2017-09-18T05:42:26.326Z,100627.48
2017-09-18T05:44:54.247Z,100620.11
2017-09-18T05:47:21.345Z,100619.46
2017-09-18T05:49:48.266Z,100617.60
2017-09-18T05:52:15.158Z,100622.97
2017-09-18T05:54:47.731Z,100624.08
2017-09-18T05:57:14.659Z,100618.67
2017-09-18T05:59:42.908Z,100615.61
2017-09-18T06:02:09.731Z,100623.35
2017-09-18T06:04:37.054Z,100621.91
2017-09-18T06:07:03.902Z,100619.28
2017-09-18T06:09:30.690Z,100617.44
2017-09-18T06:11:59.617Z,100618.84
2017-09-18T06:14:26.588Z,100622.61
2017-09-18T06:16:53.591Z,100619.35
2017-09-18T06:19:21.697Z,100626.84
2017-09-18T06:21:49.138Z,100625.66
2017-09-18T06:24:16.410Z,100625.84
2017-09-18T06:26:43.310Z,100618.59
2017-09-18T06:29:13.137Z,100626.00
2017-09-18T06:31:40.158Z,100627.33
2017-09-18T06:34:12.690Z,100633.81
2017-09-18T06:36:39.682Z,100631.91
2017-09-18T06:39:11.978Z,100634.80
2017-09-18T06:41:38.819Z,100632.18
2017-09-18T06:44:05.751Z,100626.34
2017-09-18T06:46:33.553Z,100627.66
2017-09-18T06:49:00.440Z,100633.27
2017-09-18T06:51:27.448Z,100631.78
2017-09-18T06:54:00.419Z,100629.08
2017-09-18T06:56:27.899Z,100629.91
2017-09-18T06:58:57.910Z,100627.33
2017-09-18T07:01:25.127Z,100638.13
2017-09-18T07:03:52.937Z,100634.30
2017-09-18T07:06:23.277Z,100633.16
2017-09-18T07:08:55.400Z,100633.90
2017-09-18T07:11:26.419Z,100632.52
2017-09-18T07:13:57.485Z,100628.20
2017-09-18T07:16:24.806Z,100631.73
2017-09-18T07:18:57.051Z,100632.17
2017-09-18T07:21:24.873Z,100635.05
2017-09-18T07:23:52.472Z,100638.77
2017-09-18T07:26:25.894Z,100637.20
2017-09-18T07:28:57.006Z,100635.11
2017-09-18T07:31:23.945Z,100633.02
2017-09-18T07:33:50.812Z,100635.59
2017-09-18T07:36:17.832Z,100637.33
2017-09-18T07:38:45.611Z,100640.63
2017-09-18T07:41:18.899Z,100635.34
2017-09-18T07:43:46.749Z,100640.11
2017-09-18T07:46:13.729Z,100639.09
2017-09-18T07:48:40.722Z,100638.52
2017-09-18T07:51:14.166Z,100641.48
2017-09-18T07:53:44.405Z,100650.36
2017-09-18T07:56:11.301Z,100650.60
2017-09-18T07:58:38.200Z,100649.88
2017-09-18T08:01:10.552Z,100654.37
2017-09-18T08:03:38.100Z,100650.20
2017-09-18T08:06:05.458Z,100653.68
2017-09-18T08:08:33.691Z,100653.45
2017-09-18T08:11:00.761Z,100648.28
2017-09-18T08:13:28.175Z,100653.48
2017-09-18T08:15:55.342Z,100658.31
2017-09-18T08:18:25.430Z,100656.75
2017-09-18T08:20:52.686Z,100660.23
2017-09-18T08:23:25.066Z,100660.56
2017-09-18T08:25:53.326Z,100660.34
2017-09-18T08:28:20.634Z,100659.91
2017-09-18T08:30:47.786Z,100665.40
2017-09-18T08:33:14.889Z,100664.36
2017-09-18T08:35:47.057Z,100669.41
2017-09-18T08:38:15.058Z,100672.71
2017-09-18T08:40:41.954Z,100673.15
2017-09-18T08:43:10.394Z,100672.70
2017-09-18T08:45:38.127Z,100671.92
2017-09-18T08:48:05.976Z,100677.20
2017-09-18T08:50:38.409Z,100677.39
2017-09-18T08:53:08.333Z,100673.02
2017-09-18T08:55:36.259Z,100676.34
2017-09-18T08:58:03.772Z,100675.72
2017-09-18T09:00:30.736Z,100669.48
2017-09-18T09:02:59.067Z,100671.13
2017-09-18T09:05:27.041Z,100672.45
2017-09-18T09:07:59.171Z,100670.96
2017-09-18T09:10:32.911Z,100664.90
2017-09-18T09:13:00.670Z,100673.17
2017-09-18T09:15:27.742Z,100669.62
2017-09-18T09:18:00.615Z,100668.34
2017-09-18T09:20:28.367Z,100663.92
2017-09-18T09:22:55.330Z,100671.83
2017-09-18T09:25:24.786Z,100670.73
2017-09-18T09:27:53.521Z,100677.05
2017-09-18T09:30:25.523Z,100673.05
2017-09-18T09:32:59.904Z,100672.25
2017-09-18T09:35:28.430Z,100674.86
2017-09-18T09:37:55.373Z,100677.59
2017-09-18T09:40:22.255Z,100672.03
2017-09-18T09:42:49.483Z,100678.90
2017-09-18T09:45:17.051Z,100675.11
2017-09-18T09:47:49.625Z,100678.38
2017-09-18T09:50:22.686Z,100671.17
2017-09-18T09:52:49.702Z,100672.50
2017-09-18T09:55:21.968Z,100676.16
2017-09-18T09:57:49.810Z,100679.83
2017-09-18T10:00:17.487Z,100679.90
2017-09-18T10:02:45.300Z,100682.36
2017-09-18T10:05:12.169Z,100684.80
2017-09-18T10:07:40.114Z,100683.77
2017-09-18T10:10:08.646Z,100682.30
2017-09-18T10:12:40.802Z,100684.37
2017-09-18T10:15:09.586Z,100689.47
2017-09-18T10:17:42.041Z,100685.35
2017-09-18T10:20:15.057Z,100689.23
2017-09-18T10:22:48.030Z,100690.38
2017-09-18T10:25:15.000Z,100685.95
2017-09-18T10:27:47.085Z,100696.74
2017-09-18T10:30:19.675Z,100695.96
2017-09-18T10:32:46.496Z,100700.02
2017-09-18T10:35:14.337Z,100704.27
2017-09-18T10:37:41.345Z,100705.37
2017-09-18T10:40:13.907Z,100710.34
2017-09-18T10:42:45.898Z,100714.91
2017-09-18T10:45:13.111Z,100711.92
2017-09-18T10:47:46.208Z,100714.28
2017-09-18T10:50:13.094Z,100723.19
2017-09-18T10:52:45.236Z,100717.00
2017-09-18T10:55:12.243Z,100719.36
2017-09-18T10:57:39.424Z,100717.07
2017-09-18T11:00:11.702Z,100718.37
2017-09-18T11:02:38.553Z,100719.79
2017-09-18T11:05:05.630Z,100717.39
2017-09-18T11:07:32.692Z,100719.59
2017-09-18T11:10:05.615Z,100722.23
2017-09-18T11:12:37.690Z,100719.89
2017-09-18T11:15:04.635Z,100717.95
2017-09-18T11:17:31.847Z,100716.23
2017-09-18T11:20:03.869Z,100721.31
2017-09-18T11:22:30.977Z,100716.98
2017-09-18T11:24:58.822Z,100714.23
2017-09-18T11:27:25.722Z,100710.23
2017-09-18T11:29:55.539Z,100711.94
2017-09-18T11:32:22.607Z,100710.77
2017-09-18T11:34:49.519Z,100714.72
2017-09-18T11:37:18.227Z,100713.28
2017-09-18T11:39:45.809Z,100715.62
2017-09-18T11:42:13.893Z,100714.80
2017-09-18T11:44:41.026Z,100715.73
2017-09-18T11:47:13.206Z,100719.67
2017-09-18T11:49:41.205Z,100713.39
2017-09-18T11:52:08.123Z,100715.03
2017-09-18T11:54:35.097Z,100714.73
2017-09-18T11:57:13.219Z,100716.89
2017-09-18T11:59:40.277Z,100712.70
2017-09-18T12:02:13.276Z,100702.88
2017-09-18T12:04:40.648Z,100705.03
2017-09-18T12:07:07.458Z,100701.77
2017-09-18T12:09:39.803Z,100705.86
2017-09-18T12:12:06.717Z,100696.20
2017-09-18T12:14:34.462Z,100692.72
2017-09-18T12:17:01.431Z,100693.53
2017-09-18T12:19:29.618Z,100682.25
2017-09-18T12:21:57.230Z,100682.94
2017-09-18T12:24:27.953Z,100681.59
2017-09-18T12:26:55.339Z,100684.06
2017-09-18T12:29:27.961Z,100684.89
2017-09-18T12:31:55.026Z,100677.85
2017-09-18T12:34:27.853Z,100675.77
2017-09-18T12:36:54.770Z,100679.21
2017-09-18T12:39:23.339Z,100677.33
2017-09-18T12:41:50.734Z,100671.80
2017-09-18T12:44:17.556Z,100667.16
2017-09-18T12:46:44.885Z,100663.36
2017-09-18T12:49:13.117Z,100663.36
2017-09-18T12:51:45.599Z,100664.33
2017-09-18T12:54:12.494Z,100662.37
2017-09-18T12:56:39.467Z,100662.77
2017-09-18T12:59:07.231Z,100657.95
2017-09-18T13:01:34.910Z,100667.88
2017-09-18T13:04:02.654Z,100666.46
2017-09-18T13:06:35.021Z,100668.05
2017-09-18T13:09:05.692Z,100665.09
2017-09-18T13:11:32.664Z,100668.63
2017-09-18T13:14:02.674Z,100667.33
2017-09-18T13:16:30.419Z,100670.86
2017-09-18T13:19:01.411Z,100664.95
2017-09-18T13:21:29.571Z,100665.19
2017-09-18T13:23:56.599Z,100664.58
2017-09-18T13:26:24.027Z,100660.10
2017-09-18T13:28:56.956Z,100666.51
2017-09-18T13:31:24.037Z,100659.80
2017-09-18T13:33:51.083Z,100651.73
2017-09-18T13:36:23.498Z,100654.41
2017-09-18T13:38:51.280Z,100653.31
2017-09-18T13:41:23.890Z,100648.91
2017-09-18T13:43:55.046Z,100651.03
2017-09-18T13:46:22.500Z,100642.34
2017-09-18T13:48:49.628Z,100644.16
2017-09-18T13:51:17.428Z,100636.78
2017-09-18T13:53:45.260Z,100637.05
2017-09-18T13:56:21.328Z,100638.50
2017-09-18T13:58:49.224Z,100637.13
2017-09-18T14:01:16.294Z,100636.60
2017-09-18T14:03:50.556Z,100642.12
2017-09-18T14:06:23.527Z,100642.62
2017-09-18T14:08:51.991Z,100637.69
2017-09-18T14:11:20.589Z,100638.88
2017-09-18T14:13:48.117Z,100640.26
2017-09-18T14:16:15.873Z,100641.58
2017-09-18T14:18:42.802Z,100646.22
2017-09-18T14:21:09.852Z,100646.13
2017-09-18T14:23:38.162Z,100650.42
2017-09-18T14:26:10.307Z,100647.16
2017-09-18T14:28:37.293Z,100645.30
2017-09-18T14:31:05.301Z,100642.69
2017-09-18T14:33:37.567Z,100647.86
2017-09-18T14:36:06.828Z,100647.61
2017-09-18T14:38:33.929Z,100646.47
2017-09-18T14:41:02.150Z,100655.95
2017-09-18T14:43:34.392Z,100659.52
2017-09-18T14:46:02.274Z,100663.59
2017-09-18T14:48:31.267Z,100665.03
2017-09-18T14:50:58.155Z,100673.97
2017-09-18T14:53:25.098Z,100702.42
2017-09-18T14:55:52.835Z,100728.08
2017-09-18T14:58:26.150Z,100722.37
2017-09-18T15:00:58.553Z,100721.21
2017-09-18T15:03:30.136Z,100727.36
2017-09-18T15:05:57.112Z,100729.41
2017-09-18T15:08:24.203Z,100720.48
2017-09-18T15:10:52.231Z,100715.11
2017-09-18T15:13:19.174Z,100706.25
2017-09-18T15:15:46.867Z,100700.44
2017-09-18T15:18:15.091Z,100688.98
2017-09-18T15:20:42.026Z,100688.05
2017-09-18T15:23:09.983Z,100687.02
2017-09-18T15:25:38.164Z,100686.25
2017-09-18T15:28:06.837Z,100684.46
2017-09-18T15:30:34.082Z,100694.66
2017-09-18T15:33:01.136Z,100690.33
2017-09-18T15:35:28.467Z,100682.14
2017-09-18T15:38:07.646Z,100690.64
2017-09-18T15:40:41.843Z,100687.19
2017-09-18T15:43:09.599Z,100705.27
2017-09-18T15:45:36.762Z,100715.18
2017-09-18T15:48:09.771Z,100708.02
2017-09-18T15:50:36.712Z,100711.63
2017-09-18T15:53:03.972Z,100718.94
2017-09-18T15:55:36.970Z,100719.59
2017-09-18T15:58:05.590Z,100718.66
2017-09-18T16:00:32.486Z,100720.08
2017-09-18T16:02:59.356Z,100711.69
2017-09-18T16:05:32.390Z,100721.79
2017-09-18T16:08:00.042Z,100719.75
2017-09-18T16:10:26.903Z,100720.89
2017-09-18T16:12:54.824Z,100715.13
2017-09-18T16:15:34.604Z,100716.52
2017-09-18T16:18:02.264Z,100722.23
2017-09-18T16:20:30.133Z,100722.55
2017-09-18T16:23:02.777Z,100716.73
2017-09-18T16:25:35.704Z,100718.45
2017-09-18T16:28:02.858Z,100716.47
2017-09-18T16:30:29.655Z,100717.39
2017-09-18T16:32:56.558Z,100714.89
2017-09-18T16:35:29.655Z,100721.34
2017-09-18T16:38:03.522Z,100717.28
2017-09-18T16:40:31.270Z,100709.77
2017-09-18T16:42:59.264Z,100715.66
2017-09-18T16:45:27.518Z,100713.90
2017-09-18T16:48:00.223Z,100707.66
2017-09-18T16:50:31.788Z,100709.42
2017-09-18T16:53:02.863Z,100707.22
2017-09-18T17:08:25.453Z,100716.36
2017-09-18T17:10:53.071Z,100718.73
2017-09-18T17:13:19.907Z,100717.83
2017-09-18T17:15:46.711Z,100717.88
2017-09-18T17:18:13.540Z,100724.63
2017-09-18T17:20:40.408Z,100718.81
2017-09-18T17:23:07.277Z,100718.26
2017-09-18T17:25:34.132Z,100720.58
2017-09-18T17:28:00.973Z,100725.06
2017-09-18T17:30:27.825Z,100728.67
2017-09-18T17:32:55.388Z,100725.48
2017-09-18T17:35:22.247Z,100727.51
2017-09-18T17:37:49.097Z,100733.14
2017-09-18T17:40:15.973Z,100725.61
2017-09-18T17:42:43.643Z,100723.19
2017-09-18T17:45:10.477Z,100728.06
2017-09-18T17:47:37.329Z,100731.98
2017-09-18T17:50:04.225Z,100735.97
2017-09-18T17:52:33.283Z,100736.66
2017-09-18T17:55:00.262Z,100736.66
2017-09-18T17:57:27.154Z,100743.45
2017-09-18T17:59:54.046Z,100747.00
2017-09-18T18:02:22.505Z,100737.61
2017-09-18T18:04:49.396Z,100747.25
2017-09-18T18:07:16.307Z,100743.40
2017-09-18T18:09:43.123Z,100741.52
2017-09-18T18:12:10.845Z,100741.04
2017-09-18T18:14:37.743Z,100744.04
2017-09-18T18:17:04.673Z,100744.94
2017-09-18T18:19:31.657Z,100746.13
2017-09-18T18:21:58.585Z,100744.66
2017-09-18T18:24:25.512Z,100742.34
2017-09-18T18:26:52.388Z,100743.78
2017-09-18T18:29:21.145Z,100749.82
2017-09-18T18:31:48.788Z,100746.91
2017-09-18T18:34:16.055Z,100751.42
2017-09-18T18:36:43.931Z,100751.78
2017-09-18T18:39:12.440Z,100756.52
2017-09-18T18:41:41.531Z,100759.49
2017-09-18T18:44:09.393Z,100759.58
2017-09-18T18:46:38.206Z,100763.04
2017-09-18T18:49:05.159Z,100759.01
2017-09-18T18:51:32.982Z,100756.23
2017-09-18T18:54:00.509Z,100752.63
2017-09-18T18:56:27.444Z,100759.24
2017-09-18T18:58:54.339Z,100759.92
2017-09-18T19:01:21.762Z,100766.23
2017-09-18T19:03:48.788Z,100761.36
2017-09-18T19:06:18.418Z,100765.80
2017-09-18T19:08:46.992Z,100776.11
2017-09-18T19:11:15.597Z,100773.27
2017-09-18T19:13:45.110Z,100773.44
2017-09-18T19:16:12.855Z,100774.63
2017-09-18T19:18:41.054Z,100772.79
2017-09-18T19:21:09.322Z,100766.67
2017-09-18T19:23:37.690Z,100767.55
2017-09-18T19:26:06.913Z,100765.16
2017-09-18T19:28:35.683Z,100767.12
2017-09-18T19:31:03.021Z,100767.14
2017-09-18T19:33:30.077Z,100774.02
2017-09-18T19:35:56.980Z,100772.69
2017-09-18T19:38:25.093Z,100772.30
2017-09-18T19:40:52.865Z,100769.62
2017-09-18T19:43:19.823Z,100769.25
2017-09-18T19:45:46.852Z,100762.36
2017-09-18T19:48:15.800Z,100767.00
2017-09-18T19:50:42.723Z,100766.77
2017-09-18T19:53:10.326Z,100761.92
2017-09-18T19:55:38.059Z,100771.24
2017-09-18T19:58:05.673Z,100772.30
2017-09-18T20:00:32.625Z,100778.47
2017-09-18T20:03:00.608Z,100765.71
2017-09-18T20:05:27.827Z,100766.63
2017-09-18T20:07:57.276Z,100766.41
2017-09-18T20:10:24.685Z,100773.33
2017-09-18T20:12:51.962Z,100764.66
2017-09-18T20:15:20.097Z,100768.86
2017-09-18T20:17:48.104Z,100774.88
2017-09-18T20:20:15.016Z,100772.56
2017-09-18T20:22:41.889Z,100778.51
2017-09-18T20:25:08.761Z,100777.22
2017-09-18T20:27:35.647Z,100774.79
2017-09-18T20:30:02.664Z,100775.53
2017-09-18T20:32:31.488Z,100769.89
2017-09-18T20:34:59.203Z,100775.50
2017-09-18T20:37:26.034Z,100769.86
2017-09-18T20:39:52.859Z,100769.47
2017-09-18T20:42:20.430Z,100769.67
2017-09-18T20:44:48.028Z,100769.62
2017-09-18T20:47:14.841Z,100771.09
2017-09-18T20:49:41.706Z,100776.37
2017-09-18T20:52:08.642Z,100777.28
2017-09-18T20:54:36.236Z,100778.98
2017-09-18T20:57:03.295Z,100780.67
2017-09-18T20:59:30.144Z,100783.01
2017-09-18T21:01:57.469Z,100788.06
2017-09-18T21:04:24.324Z,100791.32
2017-09-18T21:06:51.937Z,100792.92
2017-09-18T21:09:19.357Z,100787.80
2017-09-18T21:11:47.957Z,100790.34
2017-09-18T21:14:15.213Z,100788.28
2017-09-18T21:16:42.070Z,100785.63
2017-09-18T21:19:08.918Z,100787.55
2017-09-18T21:21:36.298Z,100790.61
2017-09-18T21:24:03.145Z,100786.77
2017-09-18T21:26:30.308Z,100790.66
2017-09-18T21:28:57.110Z,100786.91
2017-09-18T21:31:23.925Z,100785.89
2017-09-18T21:33:50.796Z,100789.72
2017-09-18T21:36:17.662Z,100792.89
2017-09-18T21:38:45.223Z,100793.33
2017-09-18T21:41:12.099Z,100782.70
2017-09-18T21:43:38.969Z,100784.30
2017-09-18T21:46:05.867Z,100780.25
2017-09-18T21:48:32.748Z,100781.81
2017-09-18T21:51:00.007Z,100782.64
2017-09-18T21:53:26.894Z,100780.82
2017-09-18T21:55:54.483Z,100771.23
2017-09-18T21:58:21.736Z,100769.86
2017-09-18T22:00:49.515Z,100768.25
2017-09-18T22:03:18.194Z,100767.66
2017-09-18T22:05:49.456Z,100776.14
2017-09-18T22:08:18.822Z,100770.62
2017-09-18T22:10:48.061Z,100774.95
2017-09-18T22:13:19.055Z,100776.19
2017-09-18T22:15:48.824Z,100772.77
2017-09-18T22:28:10.744Z,100771.53
2017-09-18T22:30:37.580Z,100775.30
2017-09-18T22:33:05.058Z,100776.94
2017-09-18T22:35:31.905Z,100774.97
2017-09-18T22:38:00.577Z,100778.69
2017-09-18T22:40:28.230Z,100779.50
2017-09-18T22:42:56.778Z,100781.90
2017-09-18T22:45:23.676Z,100779.47
2017-09-18T22:47:52.926Z,100779.80
2017-09-18T22:50:19.874Z,100778.34
2017-09-18T22:52:46.670Z,100773.66
2017-09-18T22:55:14.220Z,100775.66
2017-09-18T22:57:41.091Z,100769.01
2017-09-18T23:00:07.930Z,100773.52
2017-09-18T23:02:34.787Z,100765.39
2017-09-18T23:05:01.665Z,100766.27
2017-09-18T23:07:28.520Z,100769.01
2017-09-18T23:09:55.338Z,100771.77
2017-09-18T23:12:22.226Z,100768.68
2017-09-18T23:14:49.051Z,100771.39
2017-09-18T23:17:16.710Z,100769.33
2017-09-18T23:19:43.553Z,100767.97
2017-09-18T23:22:10.426Z,100772.19
2017-09-18T23:24:37.307Z,100775.43
2017-09-18T23:27:04.871Z,100777.05
2017-09-18T23:29:32.490Z,100772.52
2017-09-18T23:31:59.459Z,100778.59
2017-09-18T23:34:26.325Z,100769.20
2017-09-18T23:36:53.307Z,100772.09
2017-09-18T23:39:20.097Z,100772.38
2017-09-18T23:41:47.246Z,100769.34
2017-09-18T23:44:14.098Z,100774.65
2017-09-18T23:46:40.955Z,100773.53
2017-09-18T23:49:07.810Z,100776.93
2017-09-18T23:51:34.694Z,100775.17
2017-09-18T23:54:01.554Z,100777.69
2017-09-18T23:56:28.423Z,100777.05
2017-09-18T23:58:55.294Z,100777.37
